Onde está Evora en Portugal?

Evora é uma região em Portugal!

Buscar o nome de uma cidade:

Evormakok, Evora Hotel, Evoredulu, Evora d'Alcobaca, Évora Monte

Aqui você vai encontrar a localização de Evora em um mapa.
Para ver como ele atualmente parece, abaixo estão algumas fotos da região, com webcams online.
Você também pode encontrar a distância para as principais cidades da região e de cidades do resto do Portugal.

Todos os lugares do mundo chamado .

new

Onde está Evora no mapa?


Webcams perto Evora

Comporta: Distrito de - Praia do Carvalhal.


Comporta: Distrito de - Praia do Carvalhal - Dia
Actual
Comporta: Distrito de - Praia do Carvalhal - Actual

Benavente > North-East: AIrport, METAR: BENAV 180005Z 36004KT 17/14 Q1015.


Benavente > North-East: AIrport, METAR: BENAV 180005Z 36004KT 17/14 Q1015 - Dia
Actual
Benavente > North-East: AIrport, METAR: BENAV 180005Z 36004KT 17/14 Q1015 - Actual

Abrantes > South-West: Centro Cidade.


Abrantes > South-West: Centro Cidade - Dia
Actual
Abrantes > South-West: Centro Cidade - Actual

Webcams provided by webcams.travel

Distâncias

Onde está Evora em relação a outros lugares?


Top 10 cidades em Portugal e distância de Evora.

Cidade # Populaçãokmmilhas
Lisbon151779811471
Porto2249630285177
Amadora317885612477
Braga4121393327203
Setúbal51171099559
Coimbra6106580180112
Queluz710339812678
Funchal8980411059658
Vila Nova de Gaia970810283176
Loures106623011974